Time;durP1;ratioP1;P1;durP2;ratioP2;P2;SDS_P1;SDS_P2;PMS_P1;PMS_P2;Temp;Humidity;BMP_temperature;BMP_pressure;BME280_temperature;BME280_humidity;BME280_pressure;Samples;Min_cycle;Max_cycle;Signal;HPM_P1;HPM_P2
2023/04/16 00:02:17;;;;;;;11.57;3.63;;;;;;;7.07;100.00;102152.72;4994371;28;20060;-84
2023/04/16 00:04:43;;;;;;;7.43;3.22;;;;;;;7.16;100.00;102166.16;4995431;28;20101;-89
2023/04/16 00:07:08;;;;;;;11.57;4.43;;;;;;;7.16;100.00;102166.16;4995718;28;20141;-85
2023/04/16 00:09:33;;;;;;;11.20;4.63;;;;;;;7.17;100.00;102172.97;4995726;28;20027;-86
2023/04/16 00:11:59;;;;;;;11.27;3.80;;;;;;;7.16;100.00;102170.44;4995479;28;20452;-87
2023/04/16 00:14:24;;;;;;;9.43;3.88;;;;;;;7.17;100.00;102177.28;4995313;28;20089;-86
2023/04/16 00:16:50;;;;;;;13.88;4.35;;;;;;;7.17;100.00;102175.53;4996392;28;20094;-80
2023/04/16 00:19:15;;;;;;;10.27;4.32;;;;;;;7.19;100.00;102175.53;4996904;28;20033;-86
2023/04/16 00:21:40;;;;;;;13.82;4.82;;;;;;;7.21;100.00;102170.34;4997308;28;20029;-89
2023/04/16 00:24:06;;;;;;;14.10;4.82;;;;;;;7.19;100.00;102171.22;4996714;28;20117;-89
2023/04/16 00:26:31;;;;;;;12.77;4.60;;;;;;;7.21;100.00;102168.59;4995560;28;20026;-85
2023/04/16 00:28:56;;;;;;;14.23;4.80;;;;;;;7.21;100.00;102175.47;4995238;28;20384;-85
2023/04/16 00:31:30;;;;;;;14.20;4.75;;;;;;;7.19;100.00;102171.22;4995117;28;20065;-89
2023/04/16 00:33:57;;;;;;;12.65;5.75;;;;;;;7.03;100.00;102151.97;4994795;28;20033;-88
2023/04/16 00:36:23;;;;;;;14.98;5.35;;;;;;;7.10;100.00;102161.19;4977517;28;20065;-88
2023/04/16 00:38:49;;;;;;;10.02;4.88;;;;;;;7.02;100.00;102152.84;4995169;28;20088;-88
2023/04/16 00:41:14;;;;;;;14.95;5.80;;;;;;;7.00;100.00;102149.50;4995036;28;20034;-89
2023/04/16 00:43:39;;;;;;;15.00;5.15;;;;;;;7.14;100.00;102175.63;4995042;28;20528;-88
2023/04/16 00:46:08;;;;;;;12.85;5.97;;;;;;;7.13;100.00;102171.38;4995077;28;20046;-89
2023/04/16 00:48:38;;;;;;;14.27;5.80;;;;;;;6.97;100.00;102148.72;4994707;28;20026;-83
2023/04/16 00:51:05;;;;;;;10.32;5.50;;;;;;;6.92;100.00;102136.00;4995055;28;20034;-77
2023/04/16 00:53:31;;;;;;;14.55;5.63;;;;;;;6.96;100.00;102147.03;4994763;28;20058;-77
2023/04/16 00:55:57;;;;;;;14.63;6.55;;;;;;;6.78;100.00;102109.84;4994592;28;20073;-78
2023/04/16 00:58:23;;;;;;;16.67;6.47;;;;;;;6.99;100.00;102141.84;4994692;28;20027;-77
2023/04/16 01:00:48;;;;;;;16.42;6.88;;;;;;;7.15;100.00;102167.03;4994738;28;20117;-78
2023/04/16 01:03:13;;;;;;;13.77;6.30;;;;;;;7.15;100.00;102156.75;4994657;28;20022;-77
2023/04/16 01:05:39;;;;;;;13.43;6.13;;;;;;;7.15;100.00;102168.75;4994675;28;20030;-77
2023/04/16 01:08:05;;;;;;;11.30;7.82;;;;;;;7.13;100.00;102166.25;4994430;28;20507;-78
2023/04/16 01:10:30;;;;;;;15.07;6.18;;;;;;;7.11;100.00;102165.44;4994398;28;20471;-77
2023/04/16 01:12:55;;;;;;;14.57;6.85;;;;;;;6.93;100.00;102141.97;4994377;28;20061;-77
2023/04/16 01:15:21;;;;;;;15.25;6.68;;;;;;;6.95;100.00;102141.06;4994378;28;20456;-78
2023/04/16 01:17:46;;;;;;;22.60;8.30;;;;;;;7.11;100.00;102159.47;4994286;28;20116;-78
2023/04/16 01:20:11;;;;;;;14.82;7.10;;;;;;;6.79;100.00;102109.81;4993791;28;20026;-77
2023/04/16 01:22:37;;;;;;;15.27;7.13;;;;;;;7.04;100.00;102151.09;4994335;28;20034;-78
2023/04/16 01:25:02;;;;;;;15.35;7.20;;;;;;;6.95;100.00;102135.91;4994003;28;20494;-77
2023/04/16 01:27:28;;;;;;;12.32;6.65;;;;;;;7.06;100.00;102151.88;4994121;28;20110;-79
2023/04/16 01:29:55;;;;;;;13.75;6.30;;;;;;;6.94;100.00;102139.38;4993568;28;20018;-79
2023/04/16 01:32:20;;;;;;;15.65;7.45;;;;;;;7.12;100.00;102162.00;4993899;28;20432;-77
2023/04/16 01:34:45;;;;;;;14.30;6.68;;;;;;;6.94;100.00;102134.22;4993672;28;20085;-78
2023/04/16 01:37:11;;;;;;;13.93;6.32;;;;;;;6.97;100.00;102152.13;4993861;28;20030;-78
2023/04/16 01:39:36;;;;;;;10.52;5.90;;;;;;;7.00;100.00;102162.34;4993744;28;20035;-78
2023/04/16 01:42:02;;;;;;;12.73;6.85;;;;;;;7.09;100.00;102171.53;4994042;28;20030;-79
2023/04/16 01:44:27;;;;;;;16.88;7.63;;;;;;;7.12;100.00;102168.84;4993838;28;20475;-79
2023/04/16 01:46:53;;;;;;;13.32;7.50;;;;;;;7.12;100.00;102168.84;4993932;28;20026;-79
2023/04/16 01:49:18;;;;;;;18.05;7.70;;;;;;;7.11;100.00;102173.16;4993559;28;20375;-78
2023/04/16 01:51:44;;;;;;;17.42;6.63;;;;;;;7.12;100.00;102169.69;4993333;28;20065;-81
2023/04/16 01:54:09;;;;;;;15.32;6.10;;;;;;;7.13;100.00;102167.97;4993717;28;20093;-77
2023/04/16 01:56:34;;;;;;;12.73;6.15;;;;;;;7.09;100.00;102161.25;4993747;28;20080;-78
2023/04/16 01:59:00;;;;;;;11.98;5.95;;;;;;;7.06;100.00;102164.72;4993569;28;20475;-79
2023/04/16 02:01:25;;;;;;;12.35;6.68;;;;;;;7.15;100.00;102171.34;4993419;28;20435;-78
2023/04/16 02:03:51;;;;;;;11.60;5.85;;;;;;;7.08;100.00;102162.09;4993319;28;20041;-78
2023/04/16 02:06:17;;;;;;;11.48;5.53;;;;;;;7.13;100.00;102162.84;4993232;28;20038;-78
2023/04/16 02:08:42;;;;;;;12.95;6.10;;;;;;;6.97;100.00;102138.44;4993212;28;20054;-79
2023/04/16 02:11:08;;;;;;;12.85;5.78;;;;;;;6.98;100.00;102138.44;4993505;28;20034;-78
2023/04/16 02:13:33;;;;;;;12.60;6.07;;;;;;;6.93;100.00;102135.13;4993369;28;20349;-79
2023/04/16 02:15:58;;;;;;;15.05;6.32;;;;;;;7.18;100.00;102171.28;4993413;28;20034;-78
2023/04/16 02:18:24;;;;;;;12.23;5.63;;;;;;;7.16;100.00;102168.72;4993180;28;20026;-78
2023/04/16 02:20:49;;;;;;;10.75;5.63;;;;;;;7.10;100.00;102158.63;4993096;28;20058;-79
2023/04/16 02:23:15;;;;;;;10.30;6.07;;;;;;;7.13;100.00;102166.25;4993015;28;20030;-77
2023/04/16 02:25:41;;;;;;;10.20;5.65;;;;;;;6.96;100.00;102141.91;4993310;28;20035;-77
2023/04/16 02:28:08;;;;;;;12.90;5.80;;;;;;;7.07;100.00;102163.00;4993389;28;20026;-78
2023/04/16 02:30:35;;;;;;;11.95;5.38;;;;;;;7.03;100.00;102151.97;4993031;28;20026;-79
2023/04/16 02:33:03;;;;;;;11.40;6.18;;;;;;;7.04;100.00;102156.22;4992965;28;20064;-78
2023/04/16 02:35:29;;;;;;;12.50;5.75;;;;;;;7.10;100.00;102171.47;4992945;28;20053;-77
2023/04/16 02:37:54;;;;;;;13.20;5.93;;;;;;;7.08;100.00;102165.53;4992924;28;20094;-79
2023/04/16 02:40:19;;;;;;;10.07;6.10;;;;;;;7.07;100.00;102175.84;4992128;28;20030;-77
2023/04/16 02:42:45;;;;;;;11.40;5.75;;;;;;;7.04;100.00;102173.34;4993008;28;20034;-78
2023/04/16 02:45:10;;;;;;;11.15;5.68;;;;;;;7.04;100.00;102168.22;4993297;28;20053;-77
2023/04/16 02:47:36;;;;;;;14.02;7.40;;;;;;;7.02;100.00;102167.44;4993065;28;20030;-78
2023/04/16 02:50:01;;;;;;;13.98;6.30;;;;;;;7.08;100.00;102178.38;4992837;28;20092;-78
2023/04/16 02:52:26;;;;;;;12.23;6.78;;;;;;;7.07;100.00;102175.84;4992763;28;20034;-79
2023/04/16 02:54:52;;;;;;;11.52;6.85;;;;;;;6.88;100.00;102149.78;4992800;28;20101;-78
2023/04/16 02:57:17;;;;;;;11.25;6.18;;;;;;;7.05;100.00;102177.59;4975420;28;20376;-78
2023/04/16 02:59:42;;;;;;;13.68;6.78;;;;;;;7.04;100.00;102181.06;4992894;28;20027;-76
2023/04/16 03:02:07;;;;;;;14.05;7.80;;;;;;;6.99;100.00;102178.63;4992991;28;20034;-78
2023/04/16 03:04:33;;;;;;;14.20;7.43;;;;;;;7.03;100.00;102189.66;4992763;28;20030;-77
2023/04/16 03:06:58;;;;;;;15.98;7.65;;;;;;;7.03;100.00;102184.50;4992388;28;20038;-79
2023/04/16 03:09:23;;;;;;;18.00;7.93;;;;;;;7.02;100.00;102186.25;4992608;28;20023;-79
2023/04/16 03:11:49;;;;;;;16.02;8.10;;;;;;;7.00;100.00;102187.19;4992610;28;20034;-78
2023/04/16 03:14:14;;;;;;;15.32;8.43;;;;;;;6.96;100.00;102188.13;4992697;28;20022;-80
2023/04/16 03:16:40;;;;;;;18.48;9.20;;;;;;;6.99;100.00;102191.47;4992911;28;20101;-79
2023/04/16 03:19:05;;;;;;;18.60;9.63;;;;;;;6.92;100.00;102182.22;4982864;28;20034;-78
2023/04/16 03:21:31;;;;;;;17.70;9.23;;;;;;;6.76;100.00;102150.13;4973245;28;20086;-78
2023/04/16 03:23:56;;;;;;;16.80;10.93;;;;;;;6.95;100.00;102186.44;4973217;28;20050;-80
2023/04/16 03:26:21;;;;;;;18.15;10.75;;;;;;;6.97;100.00;102195.78;4973209;28;20051;-79
2023/04/16 03:28:47;;;;;;;19.88;11.80;;;;;;;6.97;100.00;102200.91;4973133;28;20053;-80
2023/04/16 03:31:12;;;;;;;18.77;11.63;;;;;;;6.93;100.00;102189.06;4973028;28;20033;-79
2023/04/16 03:33:37;;;;;;;20.05;11.10;;;;;;;7.00;100.00;102192.31;4973256;28;20034;-78
2023/04/16 03:36:03;;;;;;;16.85;11.25;;;;;;;7.00;100.00;102200.00;4972900;28;20026;-78
2023/04/16 03:38:28;;;;;;;22.38;12.75;;;;;;;6.56;100.00;102125.81;4973090;28;20062;-78
2023/04/16 03:40:54;;;;;;;18.95;10.73;;;;;;;7.01;100.00;102207.69;4972746;28;20027;-78
2023/04/16 03:43:19;;;;;;;23.48;12.60;;;;;;;6.83;100.00;102169.63;4973256;28;20026;-78
2023/04/16 03:45:46;;;;;;;20.95;11.80;;;;;;;6.88;100.00;102172.91;4973076;28;20381;-80
2023/04/16 03:48:11;;;;;;;18.02;11.32;;;;;;;7.04;100.00;102196.47;4973009;28;20465;-78
2023/04/16 03:50:36;;;;;;;20.88;13.07;;;;;;;6.90;100.00;102171.16;4971965;28;20076;-79
2023/04/16 03:53:02;;;;;;;17.92;11.82;;;;;;;6.85;100.00;102165.28;4975290;28;20035;-79
2023/04/16 03:55:27;;;;;;;23.70;12.40;;;;;;;7.04;100.00;102199.88;4976338;28;20031;-79
2023/04/16 03:57:52;;;;;;;19.67;11.85;;;;;;;7.06;100.00;102198.09;4976398;28;20027;-78
2023/04/16 04:00:18;;;;;;;20.13;12.75;;;;;;;7.08;100.00;102201.50;4976455;28;20070;-79
2023/04/16 04:02:43;;;;;;;22.83;12.90;;;;;;;7.10;100.00;102196.31;4976369;28;20022;-78
2023/04/16 04:05:09;;;;;;;19.58;12.63;;;;;;;7.08;100.00;102198.94;4976509;28;20065;-86
2023/04/16 04:07:34;;;;;;;19.98;12.40;;;;;;;7.11;100.00;102201.41;4976099;28;20396;-85
2023/04/16 04:10:00;;;;;;;19.48;12.57;;;;;;;7.12;100.00;102207.38;4976212;28;20435;-85
2023/04/16 04:12:26;;;;;;;19.70;12.60;;;;;;;7.09;100.00;102204.91;4975935;28;20037;-79
2023/04/16 04:14:51;;;;;;;22.90;12.63;;;;;;;6.99;100.00;102191.47;4975981;28;20165;-86
2023/04/16 04:17:17;;;;;;;18.63;12.02;;;;;;;7.08;100.00;102198.06;4976059;28;20113;-87
2023/04/16 04:19:42;;;;;;;18.27;11.73;;;;;;;7.03;100.00;102195.63;4976122;28;20031;-79
2023/04/16 04:22:07;;;;;;;18.55;11.68;;;;;;;7.10;100.00;102211.72;4975895;28;20039;-87
2023/04/16 04:24:33;;;;;;;17.48;10.98;;;;;;;7.00;100.00;102188.00;4975952;28;20019;-84
2023/04/16 04:26:58;;;;;;;19.92;12.32;;;;;;;7.09;100.00;102207.47;4975554;28;20124;-87
2023/04/16 04:29:23;;;;;;;20.60;11.88;;;;;;;7.08;100.00;102205.78;4975944;28;20481;-88
2023/04/16 04:31:48;;;;;;;19.42;11.55;;;;;;;7.08;100.00;102213.47;4975690;28;20031;-87
2023/04/16 04:34:14;;;;;;;19.98;11.43;;;;;;;7.07;100.00;102211.78;4958325;28;20187;-87
2023/04/16 04:36:39;;;;;;;18.05;11.57;;;;;;;7.06;100.00;102221.22;4975706;28;20050;-87
2023/04/16 04:39:05;;;;;;;19.63;12.48;;;;;;;7.06;100.00;102216.09;4975654;28;20084;-88
2023/04/16 04:41:30;;;;;;;24.73;11.95;;;;;;;7.01;100.00;102212.81;4975571;28;20030;-85
2023/04/16 04:43:55;;;;;;;20.33;11.48;;;;;;;7.07;100.00;102219.50;4958450;28;20104;-87
2023/04/16 04:46:21;;;;;;;18.35;12.00;;;;;;;7.07;100.00;102217.78;4975791;28;20034;-82
2023/04/16 04:48:46;;;;;;;21.10;11.98;;;;;;;7.08;100.00;102216.03;4975464;28;20078;-86
2023/04/16 04:51:11;;;;;;;18.63;12.27;;;;;;;7.10;100.00;102224.56;4975452;28;20539;-86
2023/04/16 04:53:37;;;;;;;19.05;12.43;;;;;;;7.08;100.00;102216.91;4975202;28;20058;-87
2023/04/16 04:56:02;;;;;;;18.63;12.30;;;;;;;7.10;100.00;102225.41;4975136;28;20038;-88
2023/04/16 04:58:27;;;;;;;19.05;11.63;;;;;;;6.94;100.00;102206.13;4975199;28;20027;-86
2023/04/16 05:00:53;;;;;;;19.92;13.25;;;;;;;6.98;100.00;102209.47;4975143;28;20113;-85
2023/04/16 05:03:20;;;;;;;18.77;12.75;;;;;;;7.01;100.00;102219.69;4974266;28;20048;-81
2023/04/16 05:05:46;;;;;;;20.80;12.20;;;;;;;7.04;100.00;102225.56;4975265;28;20034;-87
2023/04/16 05:08:11;;;;;;;23.73;13.98;;;;;;;7.08;100.00;102232.31;4975012;28;20126;-85
2023/04/16 05:10:36;;;;;;;21.33;13.45;;;;;;;6.93;100.00;102204.47;4974831;28;20122;-87
2023/04/16 05:13:02;;;;;;;21.55;11.60;;;;;;;7.08;100.00;102234.91;4974956;28;20039;-87
2023/04/16 05:15:27;;;;;;;19.90;12.82;;;;;;;6.96;100.00;102206.94;4974889;28;20038;-89
2023/04/16 05:17:54;;;;;;;18.30;12.18;;;;;;;7.07;100.00;102229.78;4975195;28;20033;-82
2023/04/16 05:20:21;;;;;;;22.83;12.98;;;;;;;6.96;100.00;102214.63;4975108;28;20027;-83
2023/04/16 05:22:46;;;;;;;22.70;13.25;;;;;;;6.96;100.00;102218.94;4974690;28;20399;-84
2023/04/16 05:25:12;;;;;;;26.15;13.05;;;;;;;7.10;100.00;102238.25;4974897;28;20110;-83
2023/04/16 05:27:37;;;;;;;19.38;12.48;;;;;;;7.12;100.00;102241.63;4956930;28;20488;-88
2023/04/16 05:30:03;;;;;;;26.17;14.13;;;;;;;7.13;100.00;102245.03;4974586;28;20037;-85
2023/04/16 05:32:28;;;;;;;26.83;13.75;;;;;;;7.10;100.00;102245.97;4974667;28;20038;-86
2023/04/16 05:34:54;;;;;;;25.90;13.70;;;;;;;6.96;100.00;102242.88;4974809;28;20464;-87
2023/04/16 05:37:19;;;;;;;23.15;13.10;;;;;;;6.98;100.00;102241.16;4974384;28;20034;-84
2023/04/16 05:39:45;;;;;;;25.73;14.20;;;;;;;7.08;100.00;102250.31;4974687;28;20037;-80
2023/04/16 05:42:10;;;;;;;25.77;14.70;;;;;;;7.12;100.00;102257.03;4973741;28;20040;-85
2023/04/16 05:44:35;;;;;;;24.30;14.27;;;;;;;7.13;100.00;102257.88;4974465;28;20085;-84
2023/04/16 05:47:00;;;;;;;25.73;14.90;;;;;;;7.13;100.00;102261.28;4974295;28;20440;-83
2023/04/16 05:49:26;;;;;;;22.00;14.05;;;;;;;7.14;100.00;102257.84;4974566;28;20041;-77
2023/04/16 05:51:51;;;;;;;29.30;15.95;;;;;;;7.06;100.00;102239.19;4974057;28;20030;-80
2023/04/16 05:54:17;;;;;;;26.05;14.98;;;;;;;7.13;100.00;102251.00;4974054;28;20535;-77
2023/04/16 05:56:42;;;;;;;28.20;15.63;;;;;;;7.08;100.00;102258.00;4972560;28;20189;-77
2023/04/16 05:59:07;;;;;;;25.77;15.05;;;;;;;6.88;100.00;102224.25;4974230;28;20061;-79
2023/04/16 06:01:33;;;;;;;32.70;16.73;;;;;;;7.19;100.00;102274.00;4974082;28;20384;-78
2023/04/16 06:03:58;;;;;;;29.60;16.25;;;;;;;7.18;100.00;102281.75;4973952;28;20049;-78
2023/04/16 06:06:23;;;;;;;24.00;14.98;;;;;;;7.04;100.00;102245.28;4974150;28;20102;-79
2023/04/16 06:08:49;;;;;;;28.80;16.30;;;;;;;7.14;100.00;102255.25;4973733;28;20142;-78
2023/04/16 06:11:14;;;;;;;27.30;15.98;;;;;;;7.19;100.00;102276.56;4974055;28;20447;-78
2023/04/16 06:13:41;;;;;;;26.90;16.38;;;;;;;7.11;100.00;102263.06;4973123;28;20109;-82
2023/04/16 06:16:06;;;;;;;27.08;16.80;;;;;;;7.18;100.00;102281.75;4973650;28;20023;-83
2023/04/16 06:18:32;;;;;;;27.77;16.17;;;;;;;6.94;100.00;102247.22;4973899;28;20086;-78
2023/04/16 06:21:00;;;;;;;31.30;16.25;;;;;;;7.12;100.00;102279.31;4973911;28;20097;-81
2023/04/16 06:23:25;;;;;;;30.48;17.58;;;;;;;6.99;100.00;102263.38;4973695;28;20477;-80
2023/04/16 06:25:50;;;;;;;28.17;16.05;;;;;;;6.97;100.00;102254.00;4973869;28;20031;-80
2023/04/16 06:28:16;;;;;;;32.67;16.33;;;;;;;7.10;100.00;102281.94;4973845;28;20027;-83
2023/04/16 06:30:41;;;;;;;33.25;16.85;;;;;;;7.03;100.00;102271.84;4973851;28;20384;-84
2023/04/16 06:33:07;;;;;;;35.75;18.00;;;;;;;6.98;100.00;102264.25;4973455;28;20034;-79
2023/04/16 06:35:32;;;;;;;32.28;17.20;;;;;;;7.19;100.00;102281.69;4980357;28;20025;-81
2023/04/16 06:37:58;;;;;;;31.85;16.45;;;;;;;7.24;100.00;102291.00;4993209;28;20031;-79
2023/04/16 06:40:23;;;;;;;35.80;16.70;;;;;;;7.27;100.00;102283.19;4993217;28;20022;-80
2023/04/16 06:42:49;;;;;;;36.85;17.58;;;;;;;6.80;100.00;102213.38;4993126;28;20388;-80
2023/04/16 06:45:14;;;;;;;37.08;17.88;;;;;;;7.30;100.00;102299.41;4993142;28;20472;-78
2023/04/16 06:47:40;;;;;;;37.47;17.67;;;;;;;7.14;100.00;102272.41;4992984;28;20025;-79
2023/04/16 06:50:06;;;;;;;33.42;17.75;;;;;;;7.27;100.00;102296.06;4990838;28;20026;-77
2023/04/16 06:52:31;;;;;;;36.58;17.77;;;;;;;7.26;100.00;102305.50;4993440;28;20073;-80
2023/04/16 06:54:57;;;;;;;36.45;18.30;;;;;;;7.18;100.00;102300.56;4993046;28;20030;-78
2023/04/16 06:57:22;;;;;;;37.25;18.20;;;;;;;7.27;100.00;102307.16;4993141;28;20100;-76
2023/04/16 06:59:48;;;;;;;34.28;18.98;;;;;;;7.04;100.00;102268.38;4993618;28;20491;-78
2023/04/16 07:02:13;;;;;;;35.10;17.90;;;;;;;7.36;100.00;102312.06;4993055;28;20030;-80
2023/04/16 07:04:38;;;;;;;35.25;18.15;;;;;;;7.23;100.00;102290.16;4991306;28;20419;-79
2023/04/16 07:07:04;;;;;;;37.42;19.95;;;;;;;7.29;100.00;102304.59;4992464;28;20065;-80
2023/04/16 07:09:29;;;;;;;29.95;17.27;;;;;;;7.30;100.00;102311.41;4974730;28;20062;-79
2023/04/16 07:11:55;;;;;;;37.33;18.48;;;;;;;7.10;100.00;102271.66;4992724;28;20026;-79
2023/04/16 07:14:20;;;;;;;37.97;18.90;;;;;;;7.44;100.00;102322.16;4992631;28;20098;-79
2023/04/16 07:16:45;;;;;;;33.42;17.75;;;;;;;7.45;100.00;102323.84;4992592;28;20014;-78
2023/04/16 07:19:11;;;;;;;39.95;18.20;;;;;;;7.36;100.00;102319.78;4992746;28;20105;-81
2023/04/16 07:21:36;;;;;;;32.88;16.98;;;;;;;7.47;100.00;102329.78;4991233;28;20038;-79
2023/04/16 07:24:02;;;;;;;35.95;18.58;;;;;;;7.51;100.00;102335.72;4992997;28;20106;-89
2023/04/16 07:26:27;;;;;;;44.38;18.88;;;;;;;7.51;100.00;102338.28;4993915;28;20041;-83
2023/04/16 07:28:52;;;;;;;36.72;17.67;;;;;;;7.43;100.00;102317.91;4997682;28;20073;-87
2023/04/16 07:31:18;;;;;;;33.17;19.13;;;;;;;7.50;100.00;102327.16;4997004;28;20042;-78
2023/04/16 07:33:43;;;;;;;38.33;18.13;;;;;;;7.59;100.00;102346.66;4997583;28;20027;-78
2023/04/16 07:36:08;;;;;;;37.33;18.55;;;;;;;7.61;100.00;102338.00;4997285;28;20046;-78
2023/04/16 07:38:34;;;;;;;39.40;18.40;;;;;;;7.38;100.00;102294.91;4996630;28;20487;-81
2023/04/16 07:41:00;;;;;;;37.35;18.58;;;;;;;7.68;100.00;102343.84;4981366;28;20081;-86
2023/04/16 07:43:26;;;;;;;38.53;18.00;;;;;;;7.71;100.00;102342.00;4976889;28;20037;-83
2023/04/16 07:45:52;;;;;;;33.45;19.23;;;;;;;7.54;100.00;102320.19;4994942;28;20057;-82
2023/04/16 07:48:17;;;;;;;30.27;16.83;;;;;;;7.32;100.00;102281.38;4996958;28;20030;-79
2023/04/16 07:50:42;;;;;;;32.80;17.75;;;;;;;7.54;100.00;102312.50;4995873;28;20022;-81
2023/04/16 07:53:08;;;;;;;33.85;18.58;;;;;;;7.74;100.00;102343.66;4995839;28;20045;-83
2023/04/16 07:55:33;;;;;;;37.00;18.88;;;;;;;7.88;100.00;102359.56;4995955;28;20457;-78
2023/04/16 07:57:59;;;;;;;34.58;17.33;;;;;;;7.93;100.00;102357.69;4995703;28;20030;-77
2023/04/16 08:00:25;;;;;;;31.92;18.13;;;;;;;7.70;100.00;102326.63;4995753;28;20033;-80
2023/04/16 08:02:50;;;;;;;32.20;17.33;;;;;;;7.68;100.00;102330.97;4995762;28;20026;-81
2023/04/16 08:05:16;;;;;;;32.95;16.52;;;;;;;7.19;100.00;102260.31;4995754;28;20376;-79
2023/04/16 08:07:41;;;;;;;34.90;18.30;;;;;;;7.86;100.00;102374.16;4995536;28;20046;-80
2023/04/16 08:10:07;;;;;;;37.33;17.67;;;;;;;7.91;100.00;102379.22;4995591;28;20085;-78
2023/04/16 08:12:33;;;;;;;32.30;16.90;;;;;;;7.95;100.00;102371.34;4995572;28;20037;-78
2023/04/16 08:14:58;;;;;;;37.03;18.40;;;;;;;7.81;100.00;102339.19;4978381;28;20039;-79
2023/04/16 08:17:23;;;;;;;34.72;18.05;;;;;;;7.95;100.00;102368.78;4995577;28;20048;-79
2023/04/16 08:19:49;;;;;;;28.63;17.27;;;;;;;8.02;100.00;102383.16;4995586;28;20030;-81
2023/04/16 08:22:15;;;;;;;35.95;18.20;;;;;;;8.01;100.00;102378.91;4995570;28;20030;-78
2023/04/16 08:24:40;;;;;;;32.50;17.27;;;;;;;8.06;100.00;102378.78;4995600;28;20085;-78
2023/04/16 08:27:06;;;;;;;30.98;16.13;;;;;;;8.06;100.00;102391.63;4995432;28;20035;-79
2023/04/16 08:29:31;;;;;;;31.48;16.60;;;;;;;8.10;100.00;102388.13;4995437;28;20030;-76
2023/04/16 08:31:58;;;;;;;32.67;17.98;;;;;;;7.85;100.00;102344.19;4995490;28;20033;-78
2023/04/16 08:34:23;;;;;;;32.70;16.13;;;;;;;8.21;100.00;102390.38;4995374;28;20379;-79
2023/04/16 08:36:48;;;;;;;32.78;15.75;;;;;;;8.17;100.00;102381.91;4995273;28;20022;-78
2023/04/16 08:39:14;;;;;;;33.78;17.15;;;;;;;8.24;100.00;102390.28;4994921;28;20030;-78
2023/04/16 08:41:45;;;;;;;32.20;16.50;;;;;;;8.27;100.00;102396.22;4995071;28;20037;-78
2023/04/16 08:44:26;;;;;;;31.88;16.30;;;;;;;8.28;100.00;102385.03;4995381;28;20041;-78
2023/04/16 08:46:56;;;;;;;27.75;15.90;;;;;;;8.25;100.00;102372.22;4995209;28;20113;-77
2023/04/16 08:49:23;;;;;;;32.30;16.85;;;;;;;8.42;100.00;102389.81;4995070;28;20033;-76
2023/04/16 08:51:52;;;;;;;29.52;15.73;;;;;;;8.40;100.00;102380.44;4994780;28;20026;-76
2023/04/16 08:54:45;;;;;;;35.50;17.05;;;;;;;8.50;100.00;102402.47;4995010;28;20026;-76
2023/04/16 08:57:12;;;;;;;31.30;17.23;;;;;;;8.50;100.00;102407.59;4994961;28;20109;-76
2023/04/16 08:59:37;;;;;;;31.80;18.33;;;;;;;8.48;100.00;102405.09;4994679;28;20036;-77
2023/04/16 09:02:05;;;;;;;34.45;17.05;;;;;;;8.39;100.00;102389.91;4994882;28;20105;-77
2023/04/16 09:04:31;;;;;;;28.10;16.48;;;;;;;8.53;100.00;102410.09;4977299;28;20019;-78
2023/04/16 09:06:57;;;;;;;33.40;16.27;;;;;;;8.47;100.00;102397.41;4983955;28;20386;-76
2023/04/16 09:09:25;;;;;;;30.25;16.15;;;;;;;8.59;100.00;102412.50;4975068;28;20034;-77
2023/04/16 09:11:55;;;;;;;32.30;16.48;;;;;;;8.63;100.00;102416.66;4975040;28;20062;-77
2023/04/16 09:14:21;;;;;;;33.83;16.48;;;;;;;8.68;100.00;102416.53;4975128;28;20424;-74
2023/04/16 09:16:46;;;;;;;31.85;17.52;;;;;;;8.70;100.00;102417.31;4975177;28;20019;-77
2023/04/16 09:19:13;;;;;;;31.15;18.00;;;;;;;8.68;100.00;102417.38;4974856;28;20058;-75
2023/04/16 09:21:40;;;;;;;28.95;16.08;;;;;;;8.51;100.00;102391.28;4994204;28;20092;-79
2023/04/16 09:24:07;;;;;;;32.03;16.08;;;;;;;8.56;100.00;102404.88;4995143;28;20022;-78
2023/04/16 09:26:33;;;;;;;35.22;16.63;;;;;;;8.71;100.00;102419.00;4994381;28;20357;-77
2023/04/16 09:28:58;;;;;;;32.40;16.88;;;;;;;8.71;100.00;102422.41;4994254;28;20069;-78
2023/04/16 09:31:24;;;;;;;31.10;17.63;;;;;;;8.71;100.00;102426.72;4994295;28;20116;-78
2023/04/16 09:34:07;;;;;;;31.23;16.50;;;;;;;8.76;100.00;102440.34;4994115;28;20030;-76
2023/04/16 09:36:34;;;;;;;28.52;17.27;;;;;;;8.80;100.00;102435.03;4994097;28;20437;-76
2023/04/16 09:39:00;;;;;;;30.60;17.38;;;;;;;8.83;100.00;102434.94;4994195;28;20022;-78
2023/04/16 09:41:30;;;;;;;33.50;18.13;;;;;;;8.87;100.00;102439.13;4992504;28;20041;-78
2023/04/16 09:44:01;;;;;;;30.30;16.77;;;;;;;8.82;100.00;102446.13;4993763;28;20113;-80
2023/04/16 09:46:40;;;;;;;34.47;18.23;;;;;;;8.82;100.00;102438.41;4993695;28;20476;-77
2023/04/16 09:49:09;;;;;;;31.05;18.00;;;;;;;8.75;100.00;102418.00;4993908;28;20030;-77
2023/04/16 09:51:45;;;;;;;29.45;18.30;;;;;;;8.97;100.00;102452.56;4993860;28;20391;-77
2023/04/16 09:54:11;;;;;;;29.08;17.55;;;;;;;8.97;100.00;102450.00;4993767;28;20034;-80
2023/04/16 09:56:44;;;;;;;29.95;17.80;;;;;;;8.91;100.00;102432.97;4993715;28;20061;-74
2023/04/16 09:59:20;;;;;;;27.48;18.42;;;;;;;8.95;100.00;102440.59;4993438;28;20065;-79
2023/04/16 10:01:48;;;;;;;30.77;18.83;;;;;;;8.77;100.00;102422.25;4993617;28;20030;-80
2023/04/16 10:04:13;;;;;;;27.48;18.45;;;;;;;8.75;100.00;102416.31;4993715;28;20476;-78
2023/04/16 10:06:38;;;;;;;33.45;18.20;;;;;;;8.97;100.00;102452.56;4993415;28;20026;-76
2023/04/16 10:09:09;;;;;;;31.35;19.50;;;;;;;9.02;100.00;102452.41;4993463;28;20054;-78
2023/04/16 10:11:34;;;;;;;31.13;17.85;;;;;;;8.91;100.00;102425.25;4993288;28;20394;-76
2023/04/16 10:14:00;;;;;;;26.55;17.20;;;;;;;9.11;100.00;102449.56;4993545;28;20118;-76
2023/04/16 10:16:26;;;;;;;26.08;17.08;;;;;;;9.07;100.00;102435.09;4993601;28;20100;-76
2023/04/16 10:18:52;;;;;;;25.90;16.38;;;;;;;8.98;100.00;102431.06;4993374;28;20058;-76
2023/04/16 10:21:18;;;;;;;31.77;17.17;;;;;;;9.14;100.00;102454.59;4993471;28;20026;-75
2023/04/16 10:23:44;;;;;;;29.10;17.80;;;;;;;9.10;100.00;102461.59;4993465;28;20069;-75
2023/04/16 10:26:09;;;;;;;26.05;17.63;;;;;;;9.14;100.00;102455.47;4993183;28;20027;-74
2023/04/16 10:28:35;;;;;;;26.52;17.30;;;;;;;9.12;100.00;102443.50;4993125;28;20117;-75
2023/04/16 10:31:04;;;;;;;28.60;17.48;;;;;;;9.22;100.00;102459.53;4992006;28;20038;-78
2023/04/16 10:33:40;;;;;;;26.33;15.65;;;;;;;9.26;100.00;102458.56;4992921;28;20034;-77
2023/04/16 10:36:14;;;;;;;29.70;18.50;;;;;;;8.95;100.00;102414.84;4993259;28;20061;-76
2023/04/16 10:38:48;;;;;;;27.38;15.15;;;;;;;9.11;100.00;102436.66;4993085;28;20460;-74
2023/04/16 10:41:14;;;;;;;25.88;15.55;;;;;;;9.16;100.00;102452.84;4993032;28;20058;-76
2023/04/16 10:43:42;;;;;;;25.85;15.10;;;;;;;9.30;100.00;102462.72;4993184;28;20361;-75
2023/04/16 10:46:25;;;;;;;25.48;15.95;;;;;;;9.33;100.00;102468.59;4993072;28;20022;-79
2023/04/16 10:48:58;;;;;;;24.90;16.05;;;;;;;9.35;100.00;102463.44;4993152;28;20152;-75
2023/04/16 10:51:34;;;;;;;29.35;16.52;;;;;;;9.41;100.00;102471.78;4993007;28;20098;-76
2023/04/16 10:54:11;;;;;;;29.08;16.00;;;;;;;9.48;100.00;102467.28;4993152;28;20058;-75
2023/04/16 10:56:37;;;;;;;25.05;15.98;;;;;;;9.47;100.00;102468.19;4992969;28;20022;-77
2023/04/16 10:59:08;;;;;;;26.20;16.52;;;;;;;9.47;100.00;102466.44;4981440;28;20047;-74
2023/04/16 11:01:40;;;;;;;;;;;;;;;9.60;100.00;102466.03;4993666;28;20030;-74
2023/04/16 11:04:21;;;;;;;23.75;15.50;;;;;;;9.68;100.00;102467.47;4997016;28;19921;-75
2023/04/16 11:07:12;;;;;;;22.60;15.07;;;;;;;9.77;100.00;102462.03;4996793;28;20480;-74
2023/04/16 11:09:51;;;;;;;25.02;15.30;;;;;;;9.75;100.00;102460.41;4996948;28;20038;-78